createdAt,value
2018-04-08T00:02:02.680Z,7.97
2018-04-08T00:04:29.298Z,8.30
2018-04-08T00:06:55.907Z,8.87
2018-04-08T00:09:22.767Z,8.50
2018-04-08T00:11:49.353Z,8.13
2018-04-08T00:14:16.077Z,8.33
2018-04-08T00:16:42.674Z,8.10
2018-04-08T00:19:09.287Z,8.00
2018-04-08T00:21:35.860Z,8.50
2018-04-08T00:24:02.495Z,8.10
2018-04-08T00:26:29.109Z,8.57
2018-04-08T00:28:55.750Z,7.77
2018-04-08T00:31:22.385Z,8.33
2018-04-08T00:33:49.074Z,7.67
2018-04-08T00:36:15.688Z,8.07
2018-04-08T00:38:42.342Z,8.10
2018-04-08T00:41:08.962Z,7.97
2018-04-08T00:43:35.651Z,7.30
2018-04-08T00:46:02.285Z,8.13
2018-04-08T00:48:28.902Z,7.67
2018-04-08T00:50:56.449Z,7.20
2018-04-08T00:53:23.086Z,7.80
2018-04-08T00:55:49.957Z,7.60
2018-04-08T00:58:16.583Z,7.53
2018-04-08T01:00:43.447Z,7.50
2018-04-08T01:03:10.052Z,6.80
2018-04-08T01:05:36.700Z,7.63
2018-04-08T01:08:03.292Z,7.33
2018-04-08T01:10:29.921Z,7.43
2018-04-08T01:12:56.492Z,7.40
2018-04-08T01:15:23.509Z,7.43
2018-04-08T01:17:50.233Z,7.87
2018-04-08T01:20:16.891Z,7.57
2018-04-08T01:22:43.729Z,7.57
2018-04-08T01:25:10.305Z,7.37
2018-04-08T01:27:36.919Z,7.90
2018-04-08T01:30:03.667Z,7.33
2018-04-08T01:32:30.271Z,7.83
2018-04-08T01:34:57.044Z,8.73
2018-04-08T01:37:23.652Z,7.80
2018-04-08T01:39:50.305Z,8.13
2018-04-08T01:42:17.031Z,8.07
2018-04-08T01:44:43.657Z,8.40
2018-04-08T01:47:10.252Z,8.30
2018-04-08T01:49:36.955Z,7.77
2018-04-08T01:52:03.521Z,7.77
2018-04-08T01:54:30.140Z,7.83
2018-04-08T01:56:56.760Z,7.13
2018-04-08T01:59:23.366Z,7.73
2018-04-08T02:01:49.969Z,7.20
2018-04-08T02:04:16.626Z,7.03
2018-04-08T02:06:43.254Z,7.30
2018-04-08T02:09:09.864Z,7.40
2018-04-08T02:11:36.603Z,6.73
2018-04-08T02:14:03.239Z,7.00
2018-04-08T02:16:29.852Z,7.10
2018-04-08T02:18:56.480Z,6.90
2018-04-08T02:21:23.084Z,6.50
2018-04-08T02:23:49.696Z,6.57
2018-04-08T02:26:16.311Z,6.50
2018-04-08T02:28:43.008Z,6.73
2018-04-08T02:31:09.746Z,6.40
2018-04-08T02:33:36.333Z,7.40
2018-04-08T02:36:03.014Z,6.20
2018-04-08T02:38:29.587Z,6.30
2018-04-08T02:40:56.204Z,6.07
2018-04-08T02:43:22.821Z,6.40
2018-04-08T02:45:49.456Z,6.63
2018-04-08T02:48:16.046Z,6.37
2018-04-08T02:50:42.692Z,6.80
2018-04-08T02:53:09.304Z,7.00
2018-04-08T02:55:35.896Z,6.50
2018-04-08T02:58:02.496Z,6.63
2018-04-08T03:00:29.098Z,6.13
2018-04-08T03:02:55.724Z,6.70
2018-04-08T03:05:22.361Z,6.00
2018-04-08T03:07:48.977Z,6.77
2018-04-08T03:10:15.620Z,7.20
2018-04-08T03:12:42.222Z,6.77
2018-04-08T03:15:08.823Z,6.63
2018-04-08T03:17:35.632Z,7.53
2018-04-08T03:20:02.213Z,7.07
2018-04-08T03:22:29.843Z,5.93
2018-04-08T03:24:56.548Z,6.63
2018-04-08T03:27:23.175Z,6.43
2018-04-08T03:29:49.789Z,6.00
2018-04-08T03:32:16.411Z,6.20
2018-04-08T03:34:43.200Z,6.23
2018-04-08T03:37:09.789Z,5.90
2018-04-08T03:39:36.418Z,6.33
2018-04-08T03:42:02.992Z,6.03
2018-04-08T03:44:29.627Z,6.10
2018-04-08T03:46:56.784Z,5.40
2018-04-08T03:49:23.491Z,5.53
2018-04-08T03:51:50.248Z,5.50
2018-04-08T03:54:16.863Z,5.60
2018-04-08T03:56:43.759Z,5.03
2018-04-08T03:59:10.371Z,5.63
2018-04-08T04:01:36.960Z,5.40
2018-04-08T04:04:03.576Z,5.60
2018-04-08T04:06:30.196Z,5.80
2018-04-08T04:08:56.808Z,5.80
2018-04-08T04:11:24.014Z,5.50
2018-04-08T04:13:50.635Z,6.10
2018-04-08T04:16:17.241Z,5.77
2018-04-08T04:18:50.053Z,5.73
2018-04-08T04:21:22.995Z,5.20
2018-04-08T04:23:55.478Z,5.57
2018-04-08T04:26:28.004Z,5.07
2018-04-08T04:28:54.608Z,6.03
2018-04-08T04:31:21.222Z,5.47
2018-04-08T04:33:47.825Z,5.73
2018-04-08T04:36:14.439Z,5.40
2018-04-08T04:38:41.034Z,5.90
2018-04-08T04:41:07.648Z,6.77
2018-04-08T04:43:34.271Z,6.40
2018-04-08T04:46:00.863Z,6.27
2018-04-08T04:48:27.487Z,6.33
2018-04-08T04:50:54.374Z,6.80
2018-04-08T04:53:21.021Z,6.70
2018-04-08T04:55:47.650Z,6.20
2018-04-08T04:58:14.288Z,5.93
2018-04-08T05:00:40.931Z,6.67
2018-04-08T05:03:07.559Z,6.30
2018-04-08T05:05:34.189Z,5.90
2018-04-08T05:08:00.816Z,6.53
2018-04-08T05:10:27.403Z,6.80
2018-04-08T05:12:54.015Z,6.43
2018-04-08T05:15:20.597Z,6.97
2018-04-08T05:17:47.213Z,6.50
2018-04-08T05:20:13.831Z,7.20
2018-04-08T05:22:40.887Z,7.07
2018-04-08T05:25:07.729Z,6.80
2018-04-08T05:27:34.561Z,6.03
2018-04-08T05:30:01.218Z,7.77
2018-04-08T05:32:27.842Z,6.47
2018-04-08T05:34:54.528Z,7.10
2018-04-08T05:37:21.150Z,6.73
2018-04-08T05:39:47.776Z,7.10
2018-04-08T05:42:14.373Z,8.30
2018-04-08T05:44:41.002Z,6.87
2018-04-08T05:47:07.592Z,7.30
2018-04-08T05:49:34.200Z,7.40
2018-04-08T05:52:00.836Z,6.87
2018-04-08T05:54:27.543Z,6.87
2018-04-08T05:56:54.143Z,7.10
2018-04-08T05:59:20.756Z,6.97
2018-04-08T06:01:47.484Z,7.57
2018-04-08T06:04:14.092Z,7.30
2018-04-08T06:06:40.838Z,6.70
2018-04-08T06:09:07.466Z,7.63
2018-04-08T06:11:34.064Z,6.67
2018-04-08T06:14:00.699Z,7.70
2018-04-08T06:16:27.335Z,7.50
2018-04-08T06:18:53.941Z,6.70
2018-04-08T06:21:20.562Z,7.00
2018-04-08T06:23:47.333Z,6.90
2018-04-08T06:26:13.951Z,6.87
2018-04-08T06:28:40.559Z,6.07
2018-04-08T06:31:07.239Z,6.43
2018-04-08T06:33:34.132Z,7.00
2018-04-08T06:36:00.765Z,6.47
2018-04-08T06:38:27.399Z,7.07
2018-04-08T06:40:54.071Z,7.00
2018-04-08T06:43:20.753Z,6.40
2018-04-08T06:45:47.402Z,6.47
2018-04-08T06:48:14.017Z,6.70
2018-04-08T06:50:40.674Z,7.00
2018-04-08T06:53:07.292Z,7.70
2018-04-08T06:55:33.921Z,7.17
2018-04-08T06:58:00.606Z,7.70
2018-04-08T07:00:27.247Z,7.77
2018-04-08T07:02:53.861Z,7.07
2018-04-08T07:05:20.542Z,7.67
2018-04-08T07:07:47.150Z,6.57
2018-04-08T07:10:13.833Z,7.07
2018-04-08T07:12:40.478Z,7.00
2018-04-08T07:15:07.123Z,8.50
2018-04-08T07:17:33.755Z,7.17
2018-04-08T07:20:00.404Z,7.60
2018-04-08T07:22:27.503Z,7.80
2018-04-08T07:24:54.197Z,8.47
2018-04-08T07:27:20.968Z,8.13
2018-04-08T07:29:47.620Z,8.00
2018-04-08T07:32:14.248Z,8.17
2018-04-08T07:34:40.898Z,8.20
2018-04-08T07:37:07.799Z,7.87
2018-04-08T07:39:34.441Z,8.60
2018-04-08T07:42:01.116Z,9.37
2018-04-08T07:44:27.809Z,9.30
2018-04-08T07:46:54.440Z,8.30
2018-04-08T07:49:21.127Z,8.80
2018-04-08T07:51:47.750Z,8.33
2018-04-08T07:54:14.422Z,8.30
2018-04-08T07:56:41.441Z,9.30
2018-04-08T07:59:08.241Z,7.73
2018-04-08T08:01:34.966Z,8.23
2018-04-08T08:04:02.469Z,7.67
2018-04-08T08:06:29.234Z,8.20
2018-04-08T08:08:55.966Z,7.90
2018-04-08T08:11:24.680Z,8.23
2018-04-08T08:13:52.022Z,8.27
2018-04-08T08:16:18.672Z,7.57
2018-04-08T08:18:46.018Z,8.50
2018-04-08T08:21:12.667Z,7.73
2018-04-08T08:23:42.274Z,8.63
2018-04-08T08:26:08.879Z,8.73
2018-04-08T08:28:36.703Z,8.23
2018-04-08T08:31:03.344Z,8.10
2018-04-08T08:33:29.965Z,7.50
2018-04-08T08:35:56.554Z,8.20
2018-04-08T08:38:23.176Z,9.67
2018-04-08T08:40:50.138Z,8.80
2018-04-08T08:43:16.787Z,8.07
2018-04-08T08:45:43.410Z,8.27
2018-04-08T08:48:10.033Z,8.50
2018-04-08T08:50:36.648Z,9.07
2018-04-08T08:53:03.470Z,8.73
2018-04-08T08:55:30.092Z,8.57
2018-04-08T08:57:56.709Z,8.40
2018-04-08T09:00:23.320Z,8.07
2018-04-08T09:02:49.926Z,8.50
2018-04-08T09:05:16.522Z,8.30
2018-04-08T09:07:43.153Z,8.20
2018-04-08T09:10:09.737Z,8.30
2018-04-08T09:12:36.456Z,8.40
2018-04-08T09:15:03.111Z,8.40
2018-04-08T09:17:29.801Z,8.50
2018-04-08T09:19:57.296Z,8.70
2018-04-08T09:22:39.566Z,9.03
2018-04-08T09:25:12.776Z,8.47
2018-04-08T09:27:39.387Z,8.00
2018-04-08T09:30:06.109Z,9.00
2018-04-08T09:32:32.882Z,9.20
2018-04-08T09:34:59.506Z,9.73
2018-04-08T09:37:26.122Z,10.20
2018-04-08T09:39:52.797Z,8.40
2018-04-08T09:42:19.374Z,8.60
2018-04-08T09:44:46.017Z,9.43
2018-04-08T09:47:12.607Z,8.77
2018-04-08T09:49:39.204Z,8.87
2018-04-08T09:52:05.819Z,8.40
2018-04-08T09:54:32.432Z,9.60
2018-04-08T09:56:59.160Z,8.97
2018-04-08T09:59:25.786Z,8.70
2018-04-08T10:01:54.134Z,8.70
2018-04-08T10:04:20.789Z,8.30
2018-04-08T10:06:47.396Z,8.00
2018-04-08T10:09:13.989Z,8.70
2018-04-08T10:11:40.630Z,8.10
2018-04-08T10:14:07.206Z,8.20
2018-04-08T10:16:33.795Z,7.23
2018-04-08T10:19:00.389Z,8.07
2018-04-08T10:21:26.994Z,8.47
2018-04-08T10:23:53.635Z,7.33
2018-04-08T10:26:20.236Z,8.60
2018-04-08T10:28:46.847Z,7.50
2018-04-08T10:31:13.447Z,7.70
2018-04-08T10:33:40.077Z,8.10
2018-04-08T10:36:06.697Z,7.50
2018-04-08T10:38:33.326Z,8.07
2018-04-08T10:40:59.911Z,7.60
2018-04-08T10:43:26.521Z,7.43
2018-04-08T10:45:53.181Z,7.17
2018-04-08T10:48:19.801Z,7.37
2018-04-08T10:50:46.425Z,6.93
2018-04-08T10:53:13.019Z,7.67
2018-04-08T10:55:39.667Z,7.50
2018-04-08T10:58:06.588Z,6.13
2018-04-08T11:00:33.194Z,6.50
2018-04-08T11:03:00.537Z,8.10
2018-04-08T11:05:27.251Z,7.83
2018-04-08T11:07:53.930Z,7.57
2018-04-08T11:10:20.574Z,7.87
2018-04-08T11:12:47.162Z,7.30
2018-04-08T11:15:13.840Z,7.87
2018-04-08T11:17:40.555Z,7.90
2018-04-08T11:20:07.216Z,7.53
2018-04-08T11:22:33.842Z,7.30
2018-04-08T11:25:00.489Z,6.87
2018-04-08T11:27:27.172Z,7.83
2018-04-08T11:29:53.877Z,6.83
2018-04-08T11:32:20.556Z,6.67
2018-04-08T11:34:47.565Z,7.07
2018-04-08T11:37:14.730Z,7.23
2018-04-08T11:39:41.379Z,6.93
2018-04-08T11:42:08.000Z,7.80
2018-04-08T11:44:34.753Z,6.63
2018-04-08T11:47:01.564Z,7.17
2018-04-08T11:49:28.263Z,6.63
2018-04-08T11:51:54.855Z,7.73
2018-04-08T11:54:21.593Z,6.33
2018-04-08T11:56:48.288Z,7.03
2018-04-08T11:59:14.938Z,6.90
2018-04-08T12:01:41.760Z,7.67
2018-04-08T12:04:08.505Z,7.00
2018-04-08T12:06:35.256Z,7.40
2018-04-08T12:09:01.903Z,7.13
2018-04-08T12:11:28.787Z,6.90
2018-04-08T12:13:55.565Z,7.20
2018-04-08T12:16:22.268Z,6.70
2018-04-08T12:18:48.924Z,6.73
2018-04-08T12:21:15.534Z,7.73
2018-04-08T12:23:42.244Z,6.67
2018-04-08T12:26:09.995Z,7.40
2018-04-08T12:28:36.661Z,6.70
2018-04-08T12:31:03.284Z,6.50
2018-04-08T12:33:29.875Z,6.40
2018-04-08T12:35:56.467Z,6.07
2018-04-08T12:38:23.273Z,6.47
2018-04-08T12:40:49.908Z,6.37
2018-04-08T12:43:17.605Z,6.47
2018-04-08T12:45:44.219Z,6.77
2018-04-08T12:48:10.839Z,6.80
2018-04-08T12:50:37.463Z,6.77
2018-04-08T12:53:04.077Z,6.57
2018-04-08T12:55:30.686Z,6.40
2018-04-08T12:57:58.013Z,6.77
2018-04-08T13:00:24.716Z,6.13
2018-04-08T13:02:51.425Z,7.33
2018-04-08T13:05:18.078Z,6.63
2018-04-08T13:07:44.751Z,6.03
2018-04-08T13:10:11.370Z,6.20
2018-04-08T13:12:38.973Z,6.73
2018-04-08T13:15:06.602Z,5.97
2018-04-08T13:17:33.192Z,5.37
2018-04-08T13:19:59.838Z,6.13
2018-04-08T13:22:26.464Z,5.50
2018-04-08T13:24:53.083Z,5.30
2018-04-08T13:27:20.795Z,5.00
2018-04-08T13:29:47.372Z,4.90
2018-04-08T13:32:14.047Z,4.70
2018-04-08T13:34:40.788Z,4.53
2018-04-08T13:37:07.411Z,4.80
2018-04-08T13:39:34.073Z,4.77
2018-04-08T13:42:00.957Z,5.00
2018-04-08T13:44:27.566Z,4.53
2018-04-08T13:46:54.181Z,4.73
2018-04-08T13:49:20.818Z,4.57
2018-04-08T13:51:47.423Z,5.40
2018-04-08T13:54:14.079Z,5.47
2018-04-08T13:56:40.726Z,6.03
2018-04-08T13:59:07.337Z,6.20
2018-04-08T14:01:34.064Z,5.53
2018-04-08T14:04:00.727Z,4.93
2018-04-08T14:06:27.371Z,5.13
2018-04-08T14:08:54.054Z,4.67
2018-04-08T14:11:20.732Z,4.53
2018-04-08T14:13:47.419Z,4.60
2018-04-08T14:16:14.029Z,4.00
2018-04-08T14:18:40.631Z,3.53
2018-04-08T14:21:07.261Z,4.10
2018-04-08T14:23:33.978Z,4.10
2018-04-08T14:26:00.596Z,4.50
2018-04-08T14:28:27.204Z,4.00
2018-04-08T14:30:53.852Z,4.67
2018-04-08T14:33:20.606Z,4.33
2018-04-08T14:35:47.325Z,4.23
2018-04-08T14:38:13.921Z,3.93
2018-04-08T14:40:40.640Z,4.10
2018-04-08T14:43:07.271Z,3.90
2018-04-08T14:45:33.891Z,3.80
2018-04-08T14:48:00.509Z,3.97
2018-04-08T14:50:27.164Z,3.40
2018-04-08T14:52:53.805Z,3.50
2018-04-08T14:55:20.574Z,4.03
2018-04-08T14:57:47.281Z,4.30
2018-04-08T15:00:13.906Z,4.63
2018-04-08T15:02:40.521Z,5.00
2018-04-08T15:05:07.250Z,4.80
2018-04-08T15:07:33.875Z,5.03
2018-04-08T15:10:00.465Z,4.47
2018-04-08T15:12:27.108Z,4.60
2018-04-08T15:14:53.693Z,4.90
2018-04-08T15:17:20.346Z,4.60
2018-04-08T15:19:47.050Z,4.70
2018-04-08T15:22:13.644Z,3.70
2018-04-08T15:24:40.255Z,4.50
2018-04-08T15:27:06.870Z,4.77
2018-04-08T15:29:33.655Z,4.90
2018-04-08T15:32:00.239Z,4.10
2018-04-08T15:34:26.900Z,4.00
2018-04-08T15:36:53.579Z,3.70
2018-04-08T15:39:20.205Z,4.70
2018-04-08T15:41:47.044Z,5.30
2018-04-08T15:44:13.902Z,4.33
2018-04-08T15:46:40.552Z,3.70
2018-04-08T15:49:07.238Z,4.07
2018-04-08T15:51:33.939Z,3.70
2018-04-08T15:54:00.504Z,3.80
2018-04-08T15:56:27.368Z,4.00
2018-04-08T15:58:54.103Z,3.50
2018-04-08T16:01:20.700Z,4.10
2018-04-08T16:03:47.381Z,3.17
2018-04-08T16:06:14.095Z,3.60
2018-04-08T16:08:40.793Z,3.23
2018-04-08T16:11:07.389Z,3.37
2018-04-08T16:13:34.031Z,3.40
2018-04-08T16:16:00.680Z,3.73
2018-04-08T16:18:27.313Z,3.60
2018-04-08T16:20:53.939Z,3.23
2018-04-08T16:23:20.522Z,3.43
2018-04-08T16:25:47.160Z,3.13
2018-04-08T16:28:13.876Z,3.73
2018-04-08T16:30:40.851Z,3.47
2018-04-08T16:33:07.442Z,3.73
2018-04-08T16:35:34.050Z,3.60
2018-04-08T16:38:00.768Z,3.57
2018-04-08T16:40:27.372Z,3.47
2018-04-08T16:42:53.993Z,3.60
2018-04-08T16:45:20.629Z,3.77
2018-04-08T16:47:47.523Z,3.40
2018-04-08T16:50:14.276Z,3.17
2018-04-08T16:52:41.210Z,3.27
2018-04-08T16:55:07.845Z,4.10
2018-04-08T16:57:34.488Z,3.67
2018-04-08T17:00:01.099Z,3.73
2018-04-08T17:02:27.721Z,4.13
2018-04-08T17:04:54.328Z,3.80
2018-04-08T17:07:20.955Z,4.60
2018-04-08T17:09:47.551Z,4.03
2018-04-08T17:12:14.839Z,4.53
2018-04-08T17:14:41.451Z,5.30
2018-04-08T17:17:08.093Z,9.90
2018-04-08T17:19:34.689Z,8.87
2018-04-08T17:22:01.337Z,8.27
2018-04-08T17:24:28.092Z,9.40
2018-04-08T17:26:54.690Z,8.00
2018-04-08T17:29:21.371Z,9.00
2018-04-08T17:31:47.961Z,7.13
2018-04-08T17:34:14.664Z,8.33
2018-04-08T17:36:41.288Z,5.73
2018-04-08T17:39:08.039Z,5.73
2018-04-08T17:41:34.656Z,6.20
2018-04-08T17:44:01.314Z,6.50
2018-04-08T17:46:27.944Z,7.10
2018-04-08T17:48:54.569Z,7.67
2018-04-08T17:51:21.178Z,6.83
2018-04-08T17:53:47.754Z,7.63
2018-04-08T17:56:14.471Z,6.93
2018-04-08T17:58:41.085Z,6.87
2018-04-08T18:01:08.507Z,6.83
2018-04-08T18:03:35.302Z,6.13
2018-04-08T18:06:02.592Z,6.80
2018-04-08T18:08:29.263Z,6.33
2018-04-08T18:10:55.908Z,6.73
2018-04-08T18:13:24.026Z,6.97
2018-04-08T18:15:52.400Z,5.70
2018-04-08T18:18:19.102Z,6.90
2018-04-08T18:20:45.772Z,8.43
2018-04-08T18:23:12.444Z,7.40
2018-04-08T18:25:39.096Z,6.73
2018-04-08T18:28:05.879Z,7.70
2018-04-08T18:30:32.607Z,7.40
2018-04-08T18:32:59.282Z,8.13
2018-04-08T18:35:25.985Z,7.90
2018-04-08T18:37:52.843Z,8.80
2018-04-08T18:40:19.502Z,8.70
2018-04-08T18:42:46.775Z,7.80
2018-04-08T18:45:13.487Z,7.67
2018-04-08T18:47:40.122Z,7.03
2018-04-08T18:50:06.788Z,7.20
2018-04-08T18:52:33.405Z,6.47
2018-04-08T18:55:00.703Z,7.60
2018-04-08T18:57:27.313Z,7.10
2018-04-08T18:59:54.644Z,6.13
2018-04-08T19:02:22.522Z,6.60
2018-04-08T19:04:50.954Z,6.27
2018-04-08T19:07:20.951Z,6.70
2018-04-08T19:09:47.627Z,7.17
2018-04-08T19:12:14.265Z,6.30
2018-04-08T19:14:46.699Z,5.67
2018-04-08T19:17:19.174Z,5.80
2018-04-08T19:19:45.871Z,7.57
2018-04-08T19:22:12.474Z,6.27
2018-04-08T19:24:39.135Z,7.33
2018-04-08T19:27:05.933Z,5.90
2018-04-08T19:29:32.578Z,6.37
2018-04-08T19:31:59.225Z,5.30
2018-04-08T19:34:25.835Z,7.03
2018-04-08T19:36:52.518Z,6.30
2018-04-08T19:39:19.227Z,5.77
2018-04-08T19:41:46.831Z,5.90
2018-04-08T19:44:13.475Z,6.07
2018-04-08T19:46:40.129Z,7.33
2018-04-08T19:49:06.785Z,6.53
2018-04-08T19:51:33.441Z,6.90
2018-04-08T19:54:00.121Z,7.20
2018-04-08T19:56:26.851Z,6.87
2018-04-08T19:58:53.573Z,8.67
2018-04-08T20:01:20.203Z,8.10
2018-04-08T20:03:46.831Z,8.60
2018-04-08T20:06:13.517Z,8.40
2018-04-08T20:08:40.321Z,8.30
2018-04-08T20:11:07.127Z,7.90
2018-04-08T20:13:33.891Z,9.40
2018-04-08T20:16:01.465Z,8.27
2018-04-08T20:18:28.177Z,9.07
2018-04-08T20:20:54.834Z,8.43
2018-04-08T20:23:21.490Z,8.43
2018-04-08T20:25:48.155Z,8.07
2018-04-08T20:28:14.845Z,7.07
2018-04-08T20:30:41.480Z,7.67
2018-04-08T20:33:08.190Z,7.20
2018-04-08T20:35:35.568Z,7.60
2018-04-08T20:38:02.230Z,6.90
2018-04-08T20:40:28.923Z,6.73
2018-04-08T20:42:55.683Z,7.03
2018-04-08T20:45:22.346Z,6.23
2018-04-08T20:47:49.653Z,6.07
2018-04-08T20:50:16.423Z,5.97
2018-04-08T20:52:43.086Z,6.97
2018-04-08T20:55:09.762Z,6.13
2018-04-08T20:57:36.408Z,6.40
2018-04-08T21:00:03.034Z,6.07
2018-04-08T21:02:29.850Z,6.27
2018-04-08T21:04:56.472Z,5.70
2018-04-08T21:07:23.127Z,5.43
2018-04-08T21:09:49.870Z,5.73
2018-04-08T21:12:16.575Z,5.87
2018-04-08T21:14:43.175Z,5.83
2018-04-08T21:17:09.848Z,5.70
2018-04-08T21:19:36.522Z,6.07
2018-04-08T21:22:03.223Z,5.23
2018-04-08T21:24:29.976Z,5.07
2018-04-08T21:26:56.714Z,5.50
2018-04-08T21:29:23.372Z,6.27
2018-04-08T21:31:50.030Z,5.23
2018-04-08T21:34:16.675Z,6.20
2018-04-08T21:36:43.365Z,6.23
2018-04-08T21:39:10.022Z,6.27
2018-04-08T21:41:37.666Z,5.23
2018-04-08T21:44:04.441Z,5.60
2018-04-08T21:46:31.085Z,5.53
2018-04-08T21:48:57.770Z,6.47
2018-04-08T21:51:24.727Z,6.23
2018-04-08T21:53:51.523Z,5.70
2018-04-08T21:56:18.248Z,5.10
2018-04-08T21:58:46.132Z,6.17
2018-04-08T22:01:14.711Z,6.23
2018-04-08T22:03:41.579Z,6.80
2018-04-08T22:06:08.214Z,6.20
2018-04-08T22:08:34.851Z,6.10
2018-04-08T22:11:01.483Z,6.50
2018-04-08T22:13:28.068Z,7.80
2018-04-08T22:15:54.733Z,6.10
2018-04-08T22:18:21.407Z,6.47
2018-04-08T22:20:48.033Z,6.27
2018-04-08T22:23:14.919Z,6.20
2018-04-08T22:25:41.523Z,6.30
2018-04-08T22:28:08.121Z,6.33
2018-04-08T22:30:36.711Z,6.30
2018-04-08T22:33:03.337Z,6.83
2018-04-08T22:35:30.032Z,6.17
2018-04-08T22:37:56.679Z,6.50
2018-04-08T22:40:23.535Z,6.73
2018-04-08T22:42:50.191Z,6.77
2018-04-08T22:45:16.766Z,6.50
2018-04-08T22:47:43.421Z,6.60
2018-04-08T22:50:10.069Z,7.10
2018-04-08T22:52:36.784Z,6.90
2018-04-08T22:55:03.408Z,7.20
2018-04-08T22:57:30.016Z,6.10
2018-04-08T22:59:56.603Z,6.90
2018-04-08T23:02:23.218Z,6.73
2018-04-08T23:04:49.804Z,6.47
2018-04-08T23:07:16.401Z,6.40
2018-04-08T23:09:44.084Z,6.83
2018-04-08T23:12:10.681Z,6.80
2018-04-08T23:14:37.314Z,6.40
2018-04-08T23:17:03.901Z,7.53
2018-04-08T23:19:30.524Z,7.20
2018-04-08T23:21:57.185Z,6.50
2018-04-08T23:24:23.787Z,6.70
2018-04-08T23:26:50.391Z,6.40
2018-04-08T23:29:17.026Z,7.50
2018-04-08T23:31:43.651Z,6.60
2018-04-08T23:34:10.247Z,6.27
2018-04-08T23:36:36.888Z,6.37
2018-04-08T23:39:04.095Z,5.93
2018-04-08T23:41:31.014Z,6.40
2018-04-08T23:43:57.747Z,6.17
2018-04-08T23:46:24.368Z,6.03
2018-04-08T23:48:51.138Z,6.63
2018-04-08T23:51:18.904Z,6.60
2018-04-08T23:53:45.692Z,7.17
2018-04-08T23:56:12.839Z,6.40
2018-04-08T23:58:41.554Z,6.60
